Time;durP1;ratioP1;P1;durP2;ratioP2;P2;SDS_P1;SDS_P2;PMS_P1;PMS_P2;Temp;Humidity;BMP_temperature;BMP_pressure;BME280_temperature;BME280_humidity;BME280_pressure;Samples;Min_cycle;Max_cycle;Signal;HPM_P1;HPM_P2
2022/08/17 00:00:41;;;;;;;5.87;5.43;;;;;;;;;;5036527;28;20405;-66
2022/08/17 00:03:08;;;;;;;6.60;6.10;;;;;;;;;;5036216;28;20538;-68
2022/08/17 00:05:35;;;;;;;6.73;6.10;;;;;;;;;;5036245;28;20878;-66
2022/08/17 00:08:01;;;;;;;6.20;5.60;;;;;;;;;;5036197;28;20443;-66
2022/08/17 00:10:28;;;;;;;6.10;5.80;;;;;;;;;;5036083;28;20412;-66
2022/08/17 00:12:54;;;;;;;5.50;5.23;;;;;;;;;;5036056;28;20492;-66
2022/08/17 00:15:21;;;;;;;6.50;6.10;;;;;;;;;;5036025;28;20453;-67
2022/08/17 00:17:48;;;;;;;6.30;5.93;;;;;;;;;;5035991;28;20991;-67
2022/08/17 00:20:14;;;;;;;5.37;5.17;;;;;;;;;;5034793;28;20539;-68
2022/08/17 00:22:40;;;;;;;6.53;6.13;;;;;;;;;;5035877;28;20815;-67
2022/08/17 00:25:08;;;;;;;7.13;6.67;;;;;;;;;;5035933;28;20400;-67
2022/08/17 00:27:34;;;;;;;11.80;7.23;;;;;;;;;;5036070;28;20487;-67
2022/08/17 00:30:00;;;;;;;7.67;7.17;;;;;;;;;;5035724;28;20408;-67
2022/08/17 00:32:26;;;;;;;7.40;6.90;;;;;;;;;;5035966;28;20749;-68
2022/08/17 00:34:52;;;;;;;7.47;6.83;;;;;;;;;;5035711;28;20416;-67
2022/08/17 00:37:18;;;;;;;8.50;7.73;;;;;;;;;;5035539;28;20598;-67
2022/08/17 00:39:44;;;;;;;8.60;7.80;;;;;;;;;;5035455;28;20474;-67
2022/08/17 00:42:17;;;;;;;8.37;7.80;;;;;;;;;;5035418;28;20913;-67
2022/08/17 00:44:43;;;;;;;8.63;8.07;;;;;;;;;;5035635;28;20455;-68
2022/08/17 00:47:09;;;;;;;7.90;7.40;;;;;;;;;;5035337;28;20739;-68
2022/08/17 00:49:35;;;;;;;8.57;7.97;;;;;;;;;;5017721;28;20454;-68
2022/08/17 00:52:07;;;;;;;8.73;8.13;;;;;;;;;;5035328;28;20409;-67
2022/08/17 00:54:36;;;;;;;8.03;7.33;;;;;;;;;;5035303;28;20412;-67
2022/08/17 00:57:06;;;;;;;8.27;7.77;;;;;;;;;;5035265;28;20454;-68
2022/08/17 00:59:40;;;;;;;8.20;7.60;;;;;;;;;;5035103;28;20469;-67
2022/08/17 01:02:07;;;;;;;8.90;8.10;;;;;;;;;;5035159;28;20503;-67
2022/08/17 01:04:34;;;;;;;8.37;7.17;;;;;;;;;;5035073;28;20491;-67
2022/08/17 01:07:01;;;;;;;10.07;8.20;;;;;;;;;;5035074;28;20447;-67
2022/08/17 01:09:27;;;;;;;8.10;7.60;;;;;;;;;;5035206;28;20485;-67
2022/08/17 01:11:53;;;;;;;8.07;7.57;;;;;;;;;;5035291;28;20433;-67
2022/08/17 01:14:20;;;;;;;8.30;7.67;;;;;;;;;;5034908;28;20769;-67
2022/08/17 01:16:47;;;;;;;11.43;8.80;;;;;;;;;;5034861;28;20495;-68
2022/08/17 01:19:15;;;;;;;9.50;8.60;;;;;;;;;;5034757;28;20840;-67
2022/08/17 01:21:41;;;;;;;8.37;7.23;;;;;;;;;;5034788;28;20402;-68
2022/08/17 01:24:07;;;;;;;9.17;8.43;;;;;;;;;;5034717;28;20463;-68
2022/08/17 01:26:34;;;;;;;7.03;6.83;;;;;;;;;;5034707;28;20398;-67
2022/08/17 01:29:01;;;;;;;9.03;8.17;;;;;;;;;;5034580;28;20410;-69
2022/08/17 01:31:29;;;;;;;7.97;7.47;;;;;;;;;;5034273;28;20876;-67
2022/08/17 01:33:57;;;;;;;10.93;8.07;;;;;;;;;;5034631;28;20432;-67
2022/08/17 01:36:23;;;;;;;8.60;7.90;;;;;;;;;;5034473;28;20398;-67
2022/08/17 01:38:49;;;;;;;7.90;7.17;;;;;;;;;;5034357;28;20947;-67
2022/08/17 01:41:16;;;;;;;7.73;7.13;;;;;;;;;;5034678;28;20476;-67
2022/08/17 01:43:48;;;;;;;13.30;7.00;;;;;;;;;;5034220;28;20967;-66
2022/08/17 01:46:15;;;;;;;8.47;7.10;;;;;;;;;;5034279;28;20619;-67
2022/08/17 01:48:42;;;;;;;8.20;7.70;;;;;;;;;;5034319;28;20412;-67
2022/08/17 01:51:08;;;;;;;7.60;7.10;;;;;;;;;;5034248;28;20439;-67
2022/08/17 01:53:38;;;;;;;11.10;7.23;;;;;;;;;;5034135;28;20887;-67
2022/08/17 01:56:11;;;;;;;7.20;6.70;;;;;;;;;;5034094;28;20430;-67
2022/08/17 01:58:38;;;;;;;6.93;6.57;;;;;;;;;;5034049;28;20817;-67
2022/08/17 02:01:05;;;;;;;8.13;7.60;;;;;;;;;;5034087;28;20414;-67
2022/08/17 02:03:31;;;;;;;6.60;6.20;;;;;;;;;;5033952;28;20398;-67
2022/08/17 02:05:57;;;;;;;8.10;7.60;;;;;;;;;;5033925;28;20407;-67
2022/08/17 02:08:24;;;;;;;7.57;7.00;;;;;;;;;;5033929;28;20405;-67
2022/08/17 02:10:50;;;;;;;7.73;7.00;;;;;;;;;;5033876;28;20769;-67
2022/08/17 02:13:18;;;;;;;9.80;7.00;;;;;;;;;;5033923;28;20423;-67
2022/08/17 02:15:44;;;;;;;7.73;7.13;;;;;;;;;;5033840;28;20411;-67
2022/08/17 02:18:12;;;;;;;7.80;7.13;;;;;;;;;;5033759;28;20944;-68
2022/08/17 02:20:38;;;;;;;7.10;6.50;;;;;;;;;;5033654;28;20482;-67
2022/08/17 02:23:05;;;;;;;8.07;7.30;;;;;;;;;;5033652;28;20758;-67
2022/08/17 02:25:32;;;;;;;8.97;7.27;;;;;;;;;;5033633;28;20411;-66
2022/08/17 02:27:58;;;;;;;7.70;6.90;;;;;;;;;;5033633;28;20949;-67
2022/08/17 02:30:24;;;;;;;7.57;7.10;;;;;;;;;;5033593;28;20403;-67
2022/08/17 02:32:53;;;;;;;7.03;6.53;;;;;;;;;;5033521;28;20485;-68
2022/08/17 02:35:21;;;;;;;7.13;6.50;;;;;;;;;;5033496;28;20809;-67
2022/08/17 02:37:47;;;;;;;7.93;7.43;;;;;;;;;;5033561;28;20398;-67
2022/08/17 02:40:13;;;;;;;7.77;7.37;;;;;;;;;;5033393;28;20474;-67
2022/08/17 02:42:40;;;;;;;13.20;7.50;;;;;;;;;;5032564;28;20461;-67
2022/08/17 02:45:09;;;;;;;7.83;6.93;;;;;;;;;;5015607;28;20987;-67
2022/08/17 02:47:36;;;;;;;7.33;6.70;;;;;;;;;;5033455;28;20398;-67
2022/08/17 02:50:02;;;;;;;6.97;6.53;;;;;;;;;;5033361;28;20415;-67
2022/08/17 02:52:33;;;;;;;9.13;7.00;;;;;;;;;;5033309;28;20862;-68
2022/08/17 02:54:59;;;;;;;8.00;7.23;;;;;;;;;;5033349;28;20415;-67
2022/08/17 02:57:25;;;;;;;7.50;6.87;;;;;;;;;;5033298;28;20407;-67
2022/08/17 02:59:51;;;;;;;7.50;6.90;;;;;;;;;;5033213;28;20466;-67
2022/08/17 03:02:17;;;;;;;8.27;7.47;;;;;;;;;;5033273;28;20909;-67
2022/08/17 03:04:43;;;;;;;8.47;6.60;;;;;;;;;;5033204;28;20444;-67
2022/08/17 03:07:09;;;;;;;7.70;7.17;;;;;;;;;;5033201;28;20442;-68
2022/08/17 03:09:35;;;;;;;7.30;6.90;;;;;;;;;;5015370;28;20426;-67
2022/08/17 03:12:05;;;;;;;7.43;6.87;;;;;;;;;;5033158;28;20493;-67
2022/08/17 03:14:31;;;;;;;8.07;7.50;;;;;;;;;;5033173;28;20421;-67
2022/08/17 03:16:58;;;;;;;8.60;7.93;;;;;;;;;;5033156;28;20768;-67
2022/08/17 03:19:24;;;;;;;10.50;9.00;;;;;;;;;;5033074;28;20480;-67
2022/08/17 03:21:50;;;;;;;8.77;8.17;;;;;;;;;;5033124;28;20760;-66
2022/08/17 03:24:16;;;;;;;8.40;7.87;;;;;;;;;;5033102;28;20454;-67
2022/08/17 03:26:42;;;;;;;10.67;8.00;;;;;;;;;;5033114;28;20431;-67
2022/08/17 03:29:08;;;;;;;8.60;7.70;;;;;;;;;;5032939;28;20940;-67
2022/08/17 03:31:34;;;;;;;9.57;8.93;;;;;;;;;;5033005;28;20542;-67
2022/08/17 03:33:59;;;;;;;10.27;9.23;;;;;;;;;;5032976;28;20418;-67
2022/08/17 03:36:25;;;;;;;12.13;9.50;;;;;;;;;;5032978;28;20402;-67
2022/08/17 03:38:51;;;;;;;10.00;9.37;;;;;;;;;;5032835;28;20859;-67
2022/08/17 03:41:17;;;;;;;9.80;9.10;;;;;;;;;;5032918;28;20512;-67
2022/08/17 03:43:43;;;;;;;10.20;9.30;;;;;;;;;;5032744;28;20819;-67
2022/08/17 03:57:09;;;;;;;9.60;9.07;;;;;;;;;;5036424;28;20539;-67
2022/08/17 03:59:35;;;;;;;8.90;8.03;;;;;;;;;;5036297;28;20458;-67
2022/08/17 04:02:09;;;;;;;9.23;8.57;;;;;;;;;;5036253;28;20419;-67
2022/08/17 04:04:36;;;;;;;9.93;9.33;;;;;;;;;;5036487;28;20396;-68
2022/08/17 04:07:02;;;;;;;11.70;10.80;;;;;;;;;;5036196;28;20425;-69
2022/08/17 04:09:28;;;;;;;13.77;9.47;;;;;;;;;;5036231;28;20485;-67
2022/08/17 04:11:56;;;;;;;10.30;9.33;;;;;;;;;;5036170;28;20841;-68
2022/08/17 04:14:22;;;;;;;10.87;9.83;;;;;;;;;;5036100;28;20390;-67
2022/08/17 04:16:48;;;;;;;11.60;10.70;;;;;;;;;;5036020;28;20488;-67
2022/08/17 04:19:14;;;;;;;9.57;8.93;;;;;;;;;;5035905;28;20995;-68
2022/08/17 04:21:40;;;;;;;11.70;10.10;;;;;;;;;;5035875;28;20412;-68
2022/08/17 04:24:06;;;;;;;11.47;10.57;;;;;;;;;;5035891;28;20509;-67
2022/08/17 04:26:32;;;;;;;11.40;10.27;;;;;;;;;;5035869;28;20395;-67
2022/08/17 04:28:58;;;;;;;10.27;9.47;;;;;;;;;;5035797;28;20412;-67
2022/08/17 04:31:25;;;;;;;10.80;9.93;;;;;;;;;;5035737;28;20440;-68
2022/08/17 04:33:51;;;;;;;11.37;10.40;;;;;;;;;;5035703;28;20409;-67
2022/08/17 04:36:17;;;;;;;11.20;10.20;;;;;;;;;;5035939;28;20405;-68
2022/08/17 04:38:44;;;;;;;11.10;10.30;;;;;;;;;;5035765;28;20849;-67
2022/08/17 04:43:57;;;;;;;11.30;10.20;;;;;;;;;;5035479;28;20465;-67
2022/08/17 04:46:33;;;;;;;11.67;10.67;;;;;;;;;;5035537;28;20904;-67
2022/08/17 04:49:00;;;;;;;11.13;10.07;;;;;;;;;;5035435;28;20396;-67
2022/08/17 04:51:30;;;;;;;10.57;9.73;;;;;;;;;;5035332;28;20400;-67
2022/08/17 04:54:04;;;;;;;9.90;9.20;;;;;;;;;;5035349;28;20400;-68
2022/08/17 04:56:31;;;;;;;10.30;9.53;;;;;;;;;;5035171;28;20752;-67
2022/08/17 04:58:59;;;;;;;11.10;10.30;;;;;;;;;;5035208;28;20479;-68
2022/08/17 05:01:26;;;;;;;10.17;9.37;;;;;;;;;;5035232;28;20412;-68
2022/08/17 05:03:54;;;;;;;11.20;10.30;;;;;;;;;;5035118;28;20455;-67
2022/08/17 05:06:21;;;;;;;11.27;10.43;;;;;;;;;;5034294;28;20423;-67
2022/08/17 05:08:47;;;;;;;11.80;10.60;;;;;;;;;;5035009;28;20407;-67
2022/08/17 05:11:13;;;;;;;12.73;11.50;;;;;;;;;;5035042;28;20476;-68
2022/08/17 05:13:39;;;;;;;18.50;12.77;;;;;;;;;;5034965;28;20877;-69
2022/08/17 05:16:05;;;;;;;12.90;11.97;;;;;;;;;;5017235;28;20412;-68
2022/08/17 05:18:31;;;;;;;12.93;11.73;;;;;;;;;;5034785;28;20411;-68
2022/08/17 05:20:57;;;;;;;12.00;10.90;;;;;;;;;;5035039;28;20471;-68
2022/08/17 05:23:24;;;;;;;11.47;10.53;;;;;;;;;;5034775;28;20410;-68
2022/08/17 05:25:53;;;;;;;12.40;11.50;;;;;;;;;;5034662;28;20422;-67
2022/08/17 05:28:20;;;;;;;14.00;12.70;;;;;;;;;;5034742;28;20901;-68
2022/08/17 05:30:47;;;;;;;13.30;12.07;;;;;;;;;;5034601;28;20419;-67
2022/08/17 05:33:15;;;;;;;12.30;11.03;;;;;;;;;;5034547;28;20397;-68
2022/08/17 05:35:43;;;;;;;11.97;11.07;;;;;;;;;;5034461;28;20887;-68
2022/08/17 05:38:09;;;;;;;13.80;9.93;;;;;;;;;;5034466;28;20762;-67
2022/08/17 05:40:36;;;;;;;13.10;11.87;;;;;;;;;;5034278;28;20478;-68
2022/08/17 05:43:04;;;;;;;18.03;11.63;;;;;;;;;;5034213;28;20565;-67
2022/08/17 05:45:31;;;;;;;12.47;11.27;;;;;;;;;;5034315;28;20786;-66
2022/08/17 05:47:57;;;;;;;13.40;11.50;;;;;;;;;;5034291;28;20910;-67
2022/08/17 05:50:25;;;;;;;14.13;11.90;;;;;;;;;;5034307;28;20411;-67
2022/08/17 05:53:03;;;;;;;13.83;11.10;;;;;;;;;;5034195;28;20502;-67
2022/08/17 05:55:44;;;;;;;12.07;10.87;;;;;;;;;;5034355;28;20408;-67
2022/08/17 05:58:19;;;;;;;10.63;9.63;;;;;;;;;;5034151;28;20487;-67
2022/08/17 06:00:45;;;;;;;14.40;11.17;;;;;;;;;;5033946;28;20471;-67
2022/08/17 06:03:20;;;;;;;13.07;11.53;;;;;;;;;;5034005;28;20415;-67
2022/08/17 06:05:52;;;;;;;14.83;11.50;;;;;;;;;;5033977;28;20411;-68
2022/08/17 06:08:37;;;;;;;30.93;27.93;;;;;;;;;;5033933;28;20398;-68
2022/08/17 06:11:21;;;;;;;14.17;12.80;;;;;;;;;;5033909;28;20399;-67
2022/08/17 06:14:06;;;;;;;12.00;11.10;;;;;;;;;;5033923;28;20404;-67
2022/08/17 06:16:36;;;;;;;13.30;12.10;;;;;;;;;;5033773;28;20404;-68
2022/08/17 06:19:10;;;;;;;12.67;11.47;;;;;;;;;;5033679;28;21200;-67
2022/08/17 06:21:38;;;;;;;10.63;9.50;;;;;;;;;;5033689;28;20410;-67
2022/08/17 06:24:26;;;;;;;17.00;15.40;;;;;;;;;;5033586;28;20744;-68
2022/08/17 06:26:53;;;;;;;11.67;10.60;;;;;;;;;;5033616;28;20495;-68
2022/08/17 06:29:38;;;;;;;9.70;8.90;;;;;;;;;;5033598;28;20394;-69
2022/08/17 06:32:04;;;;;;;12.63;9.37;;;;;;;;;;5033496;28;20459;-69
2022/08/17 06:34:32;;;;;;;10.47;9.63;;;;;;;;;;5033637;28;20410;-70
2022/08/17 06:37:09;;;;;;;12.27;9.30;;;;;;;;;;5033476;28;20412;-69
2022/08/17 06:39:38;;;;;;;10.67;9.60;;;;;;;;;;5033428;28;20521;-69
2022/08/17 06:42:10;;;;;;;11.50;9.87;;;;;;;;;;5033242;28;20900;-70
2022/08/17 06:44:39;;;;;;;11.90;10.37;;;;;;;;;;5033457;28;20417;-68
2022/08/17 06:47:11;;;;;;;10.40;9.53;;;;;;;;;;5033319;28;20401;-68
2022/08/17 06:49:45;;;;;;;9.93;9.03;;;;;;;;;;5033384;28;20415;-68
2022/08/17 06:52:22;;;;;;;11.83;11.00;;;;;;;;;;5015578;28;20408;-68
2022/08/17 06:54:58;;;;;;;12.27;11.00;;;;;;;;;;5033302;28;20395;-68
2022/08/17 06:57:27;;;;;;;12.10;10.67;;;;;;;;;;5033369;28;20861;-67
2022/08/17 06:59:58;;;;;;;11.57;10.60;;;;;;;;;;5033204;28;20468;-68
2022/08/17 07:02:35;;;;;;;12.90;11.60;;;;;;;;;;5033469;28;20447;-68
2022/08/17 07:05:01;;;;;;;11.50;10.47;;;;;;;;;;5033471;28;20403;-68
2022/08/17 07:10:12;;;;;;;14.00;11.53;;;;;;;;;;5033241;28;20403;-68
2022/08/17 07:12:40;;;;;;;12.30;11.17;;;;;;;;;;5033127;28;20523;-68
2022/08/17 07:15:39;;;;;;;12.70;11.50;;;;;;;;;;5033210;28;20416;-68
2022/08/17 07:18:05;;;;;;;15.67;13.03;;;;;;;;;;4989800;28;20425;-68
2022/08/17 07:20:32;;;;;;;12.03;11.03;;;;;;;;;;5033005;28;20465;-69
2022/08/17 07:23:06;;;;;;;12.73;11.50;;;;;;;;;;5032967;28;20388;-68
2022/08/17 07:25:32;;;;;;;13.13;12.00;;;;;;;;;;5033040;28;20418;-68
2022/08/17 07:28:01;;;;;;;13.37;12.07;;;;;;;;;;5033078;28;20403;-69
2022/08/17 07:30:35;;;;;;;14.87;13.50;;;;;;;;;;5035893;28;20943;-69
2022/08/17 07:33:10;;;;;;;18.20;14.40;;;;;;;;;;5036817;28;20404;-68
2022/08/17 07:35:38;;;;;;;15.33;13.83;;;;;;;;;;5036781;28;20400;-68
2022/08/17 07:38:14;;;;;;;13.97;12.87;;;;;;;;;;5037024;28;20467;-68
2022/08/17 07:40:40;;;;;;;11.37;10.37;;;;;;;;;;5036570;28;20463;-68
2022/08/17 07:43:13;;;;;;;14.93;12.40;;;;;;;;;;5036543;28;20865;-69
2022/08/17 07:48:35;;;;;;;12.60;11.70;;;;;;;;;;5036653;28;20929;-68
2022/08/17 07:51:02;;;;;;;14.07;11.23;;;;;;;;;;5036616;28;20436;-68
2022/08/17 07:53:30;;;;;;;11.97;11.03;;;;;;;;;;5036472;28;20401;-68
2022/08/17 07:55:57;;;;;;;11.70;10.67;;;;;;;;;;5036435;28;20883;-68
2022/08/17 07:58:23;;;;;;;13.50;11.03;;;;;;;;;;5036572;28;20396;-71
2022/08/17 08:01:14;;;;;;;11.97;10.87;;;;;;;;;;5036287;28;20474;-68
2022/08/17 08:03:41;;;;;;;13.83;12.40;;;;;;;;;;5036300;28;20400;-68
2022/08/17 08:06:19;;;;;;;12.47;11.27;;;;;;;;;;5036247;28;20436;-68
2022/08/17 08:08:49;;;;;;;13.23;12.13;;;;;;;;;;5036441;28;20447;-69
2022/08/17 08:11:27;;;;;;;12.80;10.10;;;;;;;;;;5036179;28;20841;-67
2022/08/17 08:13:53;;;;;;;20.13;9.47;;;;;;;;;;5036083;28;20505;-68
2022/08/17 08:16:19;;;;;;;11.77;8.20;;;;;;;;;;5035996;28;20491;-67
2022/08/17 08:18:47;;;;;;;13.47;9.23;;;;;;;;;;5035887;28;20475;-67
2022/08/17 08:21:18;;;;;;;10.63;9.00;;;;;;;;;;5035993;28;20491;-68
2022/08/17 08:23:57;;;;;;;14.27;9.67;;;;;;;;;;5035939;28;20802;-68
2022/08/17 08:26:38;;;;;;;13.33;9.53;;;;;;;;;;5035846;28;20457;-66
2022/08/17 08:29:10;;;;;;;10.77;9.70;;;;;;;;;;5035810;28;20412;-68
2022/08/17 08:31:56;;;;;;;12.27;10.13;;;;;;;;;;5035916;28;20444;-68
2022/08/17 08:34:22;;;;;;;12.10;11.20;;;;;;;;;;5035777;28;20405;-68
2022/08/17 08:36:56;;;;;;;12.37;11.27;;;;;;;;;;5035711;28;20398;-68
2022/08/17 08:39:46;;;;;;;11.03;9.63;;;;;;;;;;5035536;28;20877;-68
2022/08/17 08:42:18;;;;;;;10.80;10.00;;;;;;;;;;5034481;28;20436;-68
2022/08/17 08:44:50;;;;;;;14.90;11.93;;;;;;;;;;5035579;28;20417;-68
2022/08/17 08:47:30;;;;;;;12.00;10.97;;;;;;;;;;5035320;28;20426;-68
2022/08/17 08:50:08;;;;;;;10.73;9.67;;;;;;;;;;5035744;28;20760;-68
2022/08/17 08:52:52;;;;;;;14.27;11.17;;;;;;;;;;5035323;28;20756;-68
2022/08/17 08:55:39;;;;;;;13.23;11.67;;;;;;;;;;5035416;28;20440;-68
2022/08/17 08:58:11;;;;;;;13.67;12.10;;;;;;;;;;5021664;28;20452;-67
2022/08/17 09:00:40;;;;;;;12.30;11.13;;;;;;;;;;5035194;28;20956;-67
2022/08/17 09:03:21;;;;;;;15.60;11.73;;;;;;;;;;5035299;28;20397;-67
2022/08/17 09:05:47;;;;;;;14.17;12.73;;;;;;;;;;5035168;28;20393;-68
2022/08/17 09:08:13;;;;;;;14.17;12.73;;;;;;;;;;5035199;28;20401;-68
2022/08/17 09:11:18;;;;;;;17.50;13.03;;;;;;;;;;5035045;28;20875;-67
2022/08/17 09:13:53;;;;;;;15.60;14.00;;;;;;;;;;4954711;29;20431;-68
2022/08/17 09:16:28;;;;;;;13.40;12.13;;;;;;;;;;4954858;29;20424;-67
2022/08/17 09:18:56;;;;;;;12.27;11.27;;;;;;;;;;5002413;28;20486;-68
2022/08/17 09:21:26;;;;;;;13.93;12.83;;;;;;;;;;5034943;28;20509;-69
2022/08/17 09:24:05;;;;;;;12.03;11.23;;;;;;;;;;5034891;28;20400;-68
2022/08/17 09:26:31;;;;;;;13.30;11.90;;;;;;;;;;5034723;28;20503;-70
2022/08/17 09:29:00;;;;;;;11.93;10.90;;;;;;;;;;5034666;28;20516;-68
2022/08/17 09:31:38;;;;;;;12.70;11.60;;;;;;;;;;5034928;28;20813;-69
2022/08/17 09:34:07;;;;;;;12.00;11.00;;;;;;;;;;5034993;28;20480;-67
2022/08/17 09:36:35;;;;;;;12.17;11.00;;;;;;;;;;5034546;28;20880;-70
2022/08/17 09:39:15;;;;;;;13.70;10.30;;;;;;;;;;5034260;28;20460;-68
2022/08/17 09:41:58;;;;;;;12.80;11.80;;;;;;;;;;5034476;28;20444;-68
2022/08/17 09:44:30;;;;;;;13.73;12.37;;;;;;;;;;5034315;28;20412;-72
2022/08/17 09:47:07;;;;;;;14.50;13.10;;;;;;;;;;5034433;28;20447;-70
2022/08/17 09:49:37;;;;;;;15.53;14.10;;;;;;;;;;5034182;28;20404;-71
2022/08/17 09:52:07;;;;;;;14.47;13.13;;;;;;;;;;5033993;28;20824;-68
2022/08/17 09:54:35;;;;;;;14.03;12.60;;;;;;;;;;5033994;28;20742;-69
2022/08/17 09:57:09;;;;;;;15.03;13.53;;;;;;;;;;5034372;28;20817;-69
2022/08/17 09:59:45;;;;;;;16.07;14.40;;;;;;;;;;5033992;28;20511;-68
2022/08/17 10:02:24;;;;;;;14.50;13.20;;;;;;;;;;5034029;28;20916;-69
2022/08/17 10:05:16;;;;;;;13.90;12.70;;;;;;;;;;5033887;28;20395;-70
2022/08/17 10:08:00;;;;;;;15.23;13.90;;;;;;;;;;5030651;28;20439;-70
2022/08/17 10:10:37;;;;;;;15.53;14.00;;;;;;;;;;5033843;28;20442;-71
2022/08/17 10:13:12;;;;;;;16.17;14.47;;;;;;;;;;5033967;28;20961;-69
2022/08/17 10:15:46;;;;;;;13.20;12.27;;;;;;;;;;5033907;28;20789;-69
2022/08/17 10:18:33;;;;;;;15.30;13.77;;;;;;;;;;5033854;28;20413;-68
2022/08/17 10:26:41;;;;;;;12.83;11.73;;;;;;;;;;5033694;28;20411;-69
2022/08/17 10:29:11;;;;;;;11.67;10.53;;;;;;;;;;5033629;28;20461;-69
2022/08/17 10:31:46;;;;;;;12.87;11.80;;;;;;;;;;5033529;28;20444;-69
2022/08/17 10:34:11;;;;;;;17.63;14.40;;;;;;;;;;5033587;28;20810;-69
2022/08/17 10:36:58;;;;;;;13.43;12.23;;;;;;;;;;5033450;28;20449;-68
2022/08/17 10:39:24;;;;;;;11.43;10.47;;;;;;;;;;5033273;28;21003;-69
2022/08/17 10:41:52;;;;;;;12.37;11.20;;;;;;;;;;5033727;28;20456;-69
2022/08/17 10:44:44;;;;;;;11.23;10.10;;;;;;;;;;5033325;28;20479;-69
2022/08/17 10:47:17;;;;;;;10.67;8.73;;;;;;;;;;5033450;28;20416;-69
2022/08/17 10:49:48;;;;;;;11.53;9.13;;;;;;;;;;5033413;28;20418;-72
2022/08/17 10:52:25;;;;;;;9.70;8.90;;;;;;;;;;5033493;28;20797;-69
2022/08/17 10:54:50;;;;;;;9.87;8.87;;;;;;;;;;5033382;28;20416;-71
2022/08/17 10:57:22;;;;;;;8.30;7.77;;;;;;;;;;5033365;28;20411;-70
2022/08/17 10:59:50;;;;;;;9.00;8.30;;;;;;;;;;5033266;28;20560;-72
2022/08/17 11:02:18;;;;;;;9.30;8.60;;;;;;;;;;5033346;28;20410;-70
2022/08/17 11:04:50;;;;;;;7.90;7.40;;;;;;;;;;5035351;28;20415;-70
2022/08/17 11:07:36;;;;;;;7.03;6.40;;;;;;;;;;5037448;28;20401;-71
2022/08/17 11:10:22;;;;;;;7.10;6.60;;;;;;;;;;5037328;28;20401;-68
2022/08/17 11:12:48;;;;;;;7.10;6.40;;;;;;;;;;5037362;28;20488;-72
2022/08/17 11:15:26;;;;;;;7.20;6.60;;;;;;;;;;5037232;28;20507;-70
2022/08/17 11:17:52;;;;;;;8.00;7.37;;;;;;;;;;5037135;28;20803;-69
2022/08/17 11:20:37;;;;;;;6.93;6.53;;;;;;;;;;5036807;28;20472;-69
2022/08/17 11:23:03;;;;;;;7.37;6.93;;;;;;;;;;5036685;28;20393;-71
2022/08/17 11:25:33;;;;;;;6.77;6.10;;;;;;;;;;5036746;28;20466;-68
2022/08/17 11:28:08;;;;;;;6.43;6.13;;;;;;;;;;5036766;28;20881;-68
2022/08/17 11:30:43;;;;;;;7.50;6.83;;;;;;;;;;5019064;28;20891;-70
2022/08/17 11:33:38;;;;;;;6.70;6.40;;;;;;;;;;5036873;28;20407;-72
2022/08/17 11:36:16;;;;;;;6.90;6.27;;;;;;;;;;4966475;28;20441;-78
2022/08/17 11:38:48;;;;;;;6.73;6.40;;;;;;;;;;5036487;28;20821;-71
2022/08/17 11:41:26;;;;;;;5.80;5.47;;;;;;;;;;5036565;28;20428;-73
2022/08/17 11:44:09;;;;;;;6.30;5.87;;;;;;;;;;5036287;28;20467;-71
2022/08/17 11:52:39;;;;;;;6.23;5.83;;;;;;;;;;5036254;28;20409;-72
2022/08/17 11:55:08;;;;;;;6.93;6.33;;;;;;;;;;5036523;28;20398;-73
2022/08/17 11:57:40;;;;;;;5.73;5.23;;;;;;;;;;5036137;28;20407;-76
2022/08/17 12:00:09;;;;;;;4.80;4.60;;;;;;;;;;5035739;28;20466;-73
2022/08/17 12:02:58;;;;;;;4.40;4.30;;;;;;;;;;5036132;28;20405;-70
2022/08/17 12:05:29;;;;;;;4.20;4.10;;;;;;;;;;5033566;28;20525;-71
2022/08/17 12:07:58;;;;;;;4.10;3.90;;;;;;;;;;5036163;28;20410;-69
2022/08/17 12:10:30;;;;;;;4.00;3.90;;;;;;;;;;5035982;28;20412;-74
2022/08/17 12:12:57;;;;;;;3.80;3.50;;;;;;;;;;5036033;28;20400;-71
2022/08/17 12:15:35;;;;;;;3.40;3.30;;;;;;;;;;5035838;28;20915;-69
2022/08/17 12:18:01;;;;;;;3.60;3.40;;;;;;;;;;5035942;28;20912;-70
2022/08/17 12:20:29;;;;;;;3.23;3.13;;;;;;;;;;5035714;28;20471;-70
2022/08/17 12:23:03;;;;;;;3.90;3.70;;;;;;;;;;5035804;28;20412;-70
2022/08/17 12:25:36;;;;;;;3.37;3.17;;;;;;;;;;5036010;28;20414;-70
2022/08/17 12:28:03;;;;;;;3.50;3.30;;;;;;;;;;5035130;28;20408;-69
2022/08/17 12:30:28;;;;;;;3.73;3.53;;;;;;;;;;5035301;28;20411;-71
2022/08/17 12:32:55;;;;;;;4.07;3.80;;;;;;;;;;5035481;28;20412;-74
2022/08/17 12:35:28;;;;;;;4.07;3.83;;;;;;;;;;5035475;28;20450;-72
2022/08/17 12:37:56;;;;;;;6.83;3.67;;;;;;;;;;5035151;28;20492;-75
2022/08/17 12:40:25;;;;;;;4.10;3.90;;;;;;;;;;5035527;28;20578;-76
2022/08/17 12:42:56;;;;;;;3.57;3.47;;;;;;;;;;5035202;28;20503;-76
2022/08/17 12:45:25;;;;;;;3.43;3.33;;;;;;;;;;5035362;28;20411;-69
2022/08/17 12:48:06;;;;;;;3.83;3.63;;;;;;;;;;5035494;28;20396;-79
2022/08/17 12:50:33;;;;;;;4.30;3.10;;;;;;;;;;5035070;28;20440;-71
2022/08/17 12:52:59;;;;;;;3.20;3.10;;;;;;;;;;5035121;28;20440;-74
2022/08/17 12:55:25;;;;;;;3.20;3.00;;;;;;;;;;5035522;28;20396;-75
2022/08/17 12:57:53;;;;;;;3.97;3.67;;;;;;;;;;5035079;28;20910;-77
2022/08/17 13:00:26;;;;;;;2.67;2.57;;;;;;;;;;5035099;28;20530;-71
2022/08/17 13:03:14;;;;;;;4.50;3.10;;;;;;;;;;5034916;28;20767;-73
2022/08/17 13:05:55;;;;;;;3.37;3.10;;;;;;;;;;5034974;28;20396;-75
2022/08/17 13:08:25;;;;;;;3.70;3.60;;;;;;;;;;5034858;28;20892;-72
2022/08/17 13:10:56;;;;;;;3.37;3.27;;;;;;;;;;5034917;28;20445;-69
2022/08/17 13:13:23;;;;;;;3.33;3.23;;;;;;;;;;5034999;28;20404;-75
2022/08/17 13:15:57;;;;;;;3.50;3.23;;;;;;;;;;5034353;28;20488;-72
2022/08/17 13:18:29;;;;;;;3.57;3.47;;;;;;;;;;5034819;28;20457;-79
2022/08/17 13:20:57;;;;;;;3.67;3.50;;;;;;;;;;5034638;28;20459;-69
2022/08/17 13:23:25;;;;;;;3.57;3.47;;;;;;;;;;5034710;28;20465;-70
2022/08/17 13:26:00;;;;;;;3.50;3.30;;;;;;;;;;5034409;28;20432;-72
2022/08/17 13:28:27;;;;;;;3.07;2.97;;;;;;;;;;5033868;28;20404;-70
2022/08/17 13:31:13;;;;;;;3.37;3.27;;;;;;;;;;5034716;28;20498;-68
2022/08/17 13:33:40;;;;;;;3.03;2.93;;;;;;;;;;5034515;28;20420;-70
2022/08/17 13:36:07;;;;;;;4.00;3.00;;;;;;;;;;5034867;28;20430;-72
2022/08/17 13:38:45;;;;;;;8.00;2.93;;;;;;;;;;5034703;28;20423;-69
2022/08/17 13:41:34;;;;;;;3.47;3.33;;;;;;;;;;5034458;28;20416;-66
2022/08/17 13:44:00;;;;;;;3.20;2.97;;;;;;;;;;5034209;28;20471;-67
2022/08/17 13:46:31;;;;;;;3.07;3.00;;;;;;;;;;5034538;28;20401;-67
2022/08/17 13:48:58;;;;;;;3.13;2.93;;;;;;;;;;5034399;28;20397;-70
2022/08/17 13:51:26;;;;;;;3.10;3.00;;;;;;;;;;5034271;28;20399;-69
2022/08/17 13:53:54;;;;;;;3.00;2.90;;;;;;;;;;5016605;28;20428;-67
2022/08/17 13:56:26;;;;;;;3.30;3.20;;;;;;;;;;5034187;28;20487;-67
2022/08/17 13:58:54;;;;;;;3.27;3.17;;;;;;;;;;5034021;28;20404;-67
2022/08/17 14:01:34;;;;;;;2.73;2.63;;;;;;;;;;5034092;28;20918;-67
2022/08/17 14:04:01;;;;;;;3.77;3.67;;;;;;;;;;5034098;28;20406;-70
2022/08/17 14:06:31;;;;;;;3.40;3.30;;;;;;;;;;5034099;28;20412;-71
2022/08/17 14:08:56;;;;;;;4.03;3.87;;;;;;;;;;5033941;28;20768;-67
2022/08/17 14:11:22;;;;;;;5.03;3.90;;;;;;;;;;5033937;28;20515;-67
2022/08/17 14:13:49;;;;;;;4.80;3.87;;;;;;;;;;5034174;28;20416;-68
2022/08/17 14:16:15;;;;;;;4.20;3.67;;;;;;;;;;5033888;28;20418;-68
2022/08/17 14:18:41;;;;;;;3.80;3.60;;;;;;;;;;5033751;28;20411;-69
2022/08/17 14:21:07;;;;;;;4.03;3.83;;;;;;;;;;5033817;28;20826;-70
2022/08/17 14:23:33;;;;;;;4.03;3.90;;;;;;;;;;5033832;28;20461;-72
2022/08/17 14:26:00;;;;;;;5.53;3.70;;;;;;;;;;5033759;28;20907;-70
2022/08/17 14:28:26;;;;;;;4.23;4.10;;;;;;;;;;5033777;28;20407;-69
2022/08/17 14:30:52;;;;;;;4.37;4.17;;;;;;;;;;5033626;28;20491;-68
2022/08/17 14:33:21;;;;;;;4.17;3.50;;;;;;;;;;5033709;28;20894;-67
2022/08/17 14:35:49;;;;;;;4.20;4.00;;;;;;;;;;5033832;28;20859;-68
2022/08/17 14:38:15;;;;;;;4.20;4.10;;;;;;;;;;5033153;28;20469;-69
2022/08/17 14:40:41;;;;;;;3.50;3.50;;;;;;;;;;5033152;28;20951;-67
2022/08/17 14:43:07;;;;;;;4.07;3.77;;;;;;;;;;5033256;28;20489;-72
2022/08/17 14:45:33;;;;;;;4.00;3.87;;;;;;;;;;5033453;28;20900;-68
2022/08/17 14:48:01;;;;;;;4.57;4.23;;;;;;;;;;5033487;28;20435;-71
2022/08/17 14:50:27;;;;;;;7.23;4.97;;;;;;;;;;5033491;28;20446;-69
2022/08/17 14:52:54;;;;;;;4.80;4.50;;;;;;;;;;5033552;28;20435;-68
2022/08/17 14:55:20;;;;;;;5.10;4.70;;;;;;;;;;5033591;28;20405;-70
2022/08/17 14:57:47;;;;;;;4.40;4.20;;;;;;;;;;5033307;28;20411;-69
2022/08/17 15:00:15;;;;;;;8.73;4.00;;;;;;;;;;5033242;28;20528;-67
2022/08/17 15:02:52;;;;;;;4.10;4.00;;;;;;;;;;5033256;28;20404;-73
2022/08/17 15:05:18;;;;;;;4.80;4.50;;;;;;;;;;5033266;28;20403;-67
2022/08/17 15:07:44;;;;;;;4.57;4.47;;;;;;;;;;5033311;28;20403;-73
2022/08/17 15:10:11;;;;;;;5.00;4.80;;;;;;;;;;5033146;28;20408;-74
2022/08/17 15:12:38;;;;;;;5.77;4.80;;;;;;;;;;5033164;28;20413;-75
2022/08/17 15:15:05;;;;;;;5.10;4.60;;;;;;;;;;5033191;28;20437;-78
2022/08/17 15:17:35;;;;;;;4.67;4.07;;;;;;;;;;5033115;28;20433;-77
2022/08/17 15:20:01;;;;;;;4.77;4.37;;;;;;;;;;5033006;28;20474;-82
2022/08/17 15:22:27;;;;;;;5.20;4.93;;;;;;;;;;5033113;28;20398;-73